Latest Weather Observations for Cape Wessel

IDD60801

Issued at 4:31 am CST Friday 1 July 2016 (issued every 30 minutes, with the page automatically refreshed every 10 minutes)

About weather observations | Map of weather stations | Latest weather observations for NT | Other Formats
Station Details ID: 200786 Name: CAPE WESSEL Lat: -11.00 Lon: 136.76 Height: 18.0 m
Data from the previous 72 hours. | See also: Recent months at Cape Wessel
Date/Time
CST
Temp
°C
App
Temp
°C
Dew
Point
°C
Rel
Hum
%
Delta-T
°C
Wind Press
QNH
hPa
Press
MSL
hPa
Rain since
9am
mm
Dir  Spd
km/h
Gust
km/h
Spd
kts
Gust
kts
01/04:30am 25.9 23.0 18.8 65 4.5 ESE 32 39 17 21 1013.5 1013.4 -
01/04:00am 26.0 22.6 18.2 62 4.9 SE 33 43 18 23 1013.4 1013.3 0.0
01/03:30am 26.1 22.7 19.0 65 4.6 SE 35 43 19 23 1013.4 1013.3 0.0
01/03:00am 26.1 23.2 20.0 69 4.0 SE 35 43 19 23 1013.5 1013.4 0.0
01/02:30am 26.1 22.9 19.5 67 4.3 SE 35 44 19 24 1013.7 1013.6 0.0
01/02:00am 26.2 22.8 19.8 68 4.2 SE 37 48 20 26 1013.9 1013.8 0.0
01/01:30am 26.3 22.6 19.9 68 4.2 SE 39 48 21 26 1014.0 1013.9 0.0
01/01:00am 26.4 22.9 20.5 70 3.9 SE 39 48 21 26 1014.3 1014.2 0.0
01/12:30am 26.4 22.3 20.0 68 4.2 SE 41 48 22 26 1014.5 1014.4 0.0
01/12:00am 26.3 22.3 20.2 69 4.0 SE 41 52 22 28 1014.7 1014.6 0.0
 
Date/Time
CST
Temp
°C
App
Temp
°C
Dew
Point
°C
Rel
Hum
%
Delta-T
°C
Wind Press
QNH
hPa
Press
MSL
hPa
Rain since
9am
mm
Dir  Spd
km/h
Gust
km/h
Spd
kts
Gust
kts
30/11:30pm 26.4 22.3 20.7 71 3.7 SE 43 52 23 28 1014.7 1014.6 0.0
30/11:00pm 26.5 23.7 21.0 72 3.6 SE 37 46 20 25 1014.8 1014.7 0.0
30/10:30pm 26.4 22.9 20.5 70 3.9 ESE 39 46 21 25 1015.0 1014.9 0.0
30/10:00pm 26.5 23.1 20.6 70 3.9 ESE 39 46 21 25 1015.2 1015.1 0.0
30/09:30pm 26.5 23.7 21.0 72 3.6 ESE 37 46 20 25 1015.2 1015.1 0.0
30/09:00pm 26.6 23.4 21.1 72 3.6 SE 39 50 21 27 1015.0 1014.9 0.0
30/08:30pm 26.9 24.2 21.9 74 3.3 SE 39 48 21 26 1014.8 1014.7 0.0
30/08:00pm 26.8 23.8 21.3 72 3.7 SE 39 50 21 27 1014.4 1014.3 0.0
30/07:30pm 26.7 23.5 21.0 71 3.8 SE 39 48 21 26 1014.0 1013.9 0.0
30/07:00pm 26.7 23.4 21.5 73 3.5 SE 41 48 22 26 1013.6 1013.5 0.0
30/06:30pm 26.9 23.5 21.4 72 3.7 ESE 41 46 22 25 1013.2 1013.1 0.0
30/06:00pm 27.0 24.1 21.5 72 3.7 SE 39 48 21 26 1012.8 1012.7 0.0
30/05:30pm 27.4 24.4 21.4 70 4.0 SE 39 50 21 27 1012.5 1012.4 0.0
30/05:00pm 27.9 25.1 21.7 69 4.2 ESE 39 50 21 27 1012.4 1012.3 0.0
30/04:30pm 28.2 24.5 21.5 67 4.5 SE 43 50 23 27 1012.2 1012.1 0.0
30/04:00pm 28.6 25.2 21.4 65 4.8 ESE 41 50 22 27 1012.0 1011.9 0.0
30/03:30pm 29.0 26.0 22.2 66 4.6 SE 41 48 22 26 1012.0 1011.9 0.0
30/03:00pm 29.5 27.2 22.7 67 4.6 ESE 39 46 21 25 1012.3 1012.2 0.0
30/02:30pm 29.7 26.9 22.4 65 5.0 ESE 41 50 22 27 1012.5 1012.4 0.0
30/02:00pm 29.5 26.9 22.2 65 4.9 ESE 39 48 21 26 1012.9 1012.8 0.0
30/01:30pm 30.1 28.2 22.8 65 5.0 ESE 37 44 20 24 1013.3 1013.2 0.0
30/01:00pm 30.3 28.3 23.2 65 4.9 ESE 39 48 21 26 1013.7 1013.6 0.0
30/12:30pm 30.2 27.5 22.6 63 5.2 ESE 41 50 22 27 1014.0 1013.9 0.0
30/12:00pm 30.5 28.8 24.4 70 4.3 ESE 41 48 22 26 1014.3 1014.2 0.0
30/11:30am 30.0 26.9 22.7 65 5.0 ESE 43 52 23 28 1014.6 1014.5 0.0
30/11:00am 30.1 28.0 23.0 65 4.9 ESE 39 52 21 28 1014.9 1014.8 0.0
30/10:30am 29.7 26.9 22.4 65 5.0 ESE 41 52 22 28 1015.2 1015.1 0.0
30/10:00am 29.6 27.4 22.8 67 4.6 ESE 39 52 21 28 1015.2 1015.1 0.0
30/09:30am 29.2 26.9 22.7 68 4.4 ESE 39 48 21 26 1015.6 1015.5 0.0
30/09:00am 28.8 25.6 21.8 66 4.7 ESE 41 52 22 28 1015.6 1015.5 0.0
30/08:30am 28.4 25.1 22.2 69 4.2 ESE 43 52 23 28 1015.3 1015.2 0.0
30/08:00am 27.9 24.1 21.4 67 4.3 ESE 43 56 23 30 1014.9 1014.8 0.0
30/07:30am 27.2 23.9 22.2 74 3.4 ESE 43 52 23 28 1014.6 1014.5 0.0
30/07:00am 27.3 25.0 22.7 76 3.1 ESE 39 50 21 27 1014.4 1014.3 0.0
30/06:30am 27.2 24.4 22.4 75 3.2 ESE 41 52 22 28 1014.0 1013.9 0.0
30/06:00am 27.0 24.6 22.6 77 3.0 ESE 39 46 21 25 1013.5 1013.4 0.0
30/05:30am 26.8 24.8 22.6 78 2.8 SE 37 46 20 25 1013.3 1013.2 0.0
30/05:00am 26.9 24.1 22.5 77 3.0 SE 41 50 22 27 1013.0 1012.9 0.0
30/04:30am 26.8 24.7 22.4 77 3.0 SE 37 48 20 26 1013.1 1013.0 0.0
30/04:00am 26.8 24.8 22.6 78 2.8 SE 37 46 20 25 1013.1 1013.0 0.0
30/03:30am 26.8 24.4 22.6 78 2.8 SE 39 44 21 24 1013.2 1013.1 0.0
30/03:00am 26.8 24.8 22.6 78 2.8 SE 37 46 20 25 1013.3 1013.2 0.0
30/02:30am 27.0 25.2 23.0 79 2.7 SE 37 46 20 25 1013.5 1013.4 0.0
30/02:00am 26.8 25.2 22.6 78 2.8 SE 35 44 19 24 1013.8 1013.7 0.0
30/01:30am 26.9 25.7 22.7 78 2.8 SE 33 43 18 23 1013.9 1013.8 0.0
30/01:00am 27.1 25.4 23.1 79 2.7 SE 37 46 20 25 1014.2 1014.1 0.0
30/12:30am 27.0 26.2 23.3 80 2.5 SE 33 41 18 22 1014.2 1014.1 0.0
30/12:00am 26.8 25.8 22.6 78 2.8 SE 32 41 17 22 1014.4 1014.3 0.0
 
Date/Time
CST
Temp
°C
App
Temp
°C
Dew
Point
°C
Rel
Hum
%
Delta-T
°C
Wind Press
QNH
hPa
Press
MSL
hPa
Rain since
9am
mm
Dir  Spd
km/h
Gust
km/h
Spd
kts
Gust
kts
29/11:30pm 26.9 25.4 22.7 78 2.8 SE 35 43 19 23 1014.5 1014.4 0.0
29/11:00pm 26.9 25.6 22.5 77 3.0 SE 33 39 18 21 1014.6 1014.5 0.0
29/10:30pm 27.0 25.8 22.6 77 3.0 SE 33 43 18 23 1014.7 1014.6 0.0
29/10:00pm 27.1 26.0 22.9 78 2.9 SE 33 43 18 23 1014.7 1014.6 0.0
29/09:30pm 27.0 25.5 22.8 78 2.8 SE 35 43 19 23 1014.6 1014.5 0.0
29/09:00pm 27.1 25.6 22.7 77 3.0 SE 35 43 19 23 1014.6 1014.5 0.0
29/08:30pm 26.7 25.6 22.8 79 2.6 SE 33 43 18 23 1014.5 1014.4 0.0
29/08:00pm 26.9 25.4 22.1 75 3.2 SE 33 41 18 22 1014.2 1014.1 0.0
29/07:30pm 26.9 25.6 22.1 75 3.2 SE 32 39 17 21 1013.8 1013.7 0.0
29/07:00pm 27.1 25.0 22.3 75 3.2 ESE 37 43 20 23 1013.5 1013.4 0.0
29/06:30pm 27.2 25.1 22.4 75 3.2 SE 37 43 20 23 1013.1 1013.0 0.0
29/06:00pm 27.2 25.1 22.4 75 3.2 SE 37 43 20 23 1012.8 1012.7 0.0
29/05:30pm 27.5 25.2 22.0 72 3.7 ESE 37 46 20 25 1012.6 1012.5 0.0
29/05:00pm 28.1 26.0 22.3 70 3.9 ESE 37 46 20 25 1012.4 1012.3 0.0
29/04:30pm 28.6 26.2 22.6 70 4.1 ESE 39 46 21 25 1012.2 1012.1 0.0
29/04:00pm 28.8 26.8 22.5 68 4.3 ESE 37 44 20 24 1012.1 1012.0 0.0
29/03:30pm 29.3 27.4 22.8 68 4.4 ESE 37 46 20 25 1012.1 1012.0 0.0
29/03:00pm 29.7 28.3 22.9 67 4.7 ESE 35 46 19 25 1012.2 1012.1 0.0
29/02:30pm 30.0 28.0 23.2 67 4.7 ESE 39 50 21 27 1012.3 1012.2 0.0
29/02:00pm 30.0 27.8 22.9 65 4.9 ESE 39 48 21 26 1012.7 1012.6 0.0
29/01:30pm 30.6 29.0 23.3 65 5.0 ESE 37 46 20 25 1013.0 1012.9 0.0
29/01:00pm 30.7 29.2 23.4 65 5.0 ESE 37 46 20 25 1013.4 1013.3 0.0
29/12:30pm 30.6 30.6 24.7 71 4.1 ESE 33 44 18 24 1013.9 1013.8 0.0
29/12:00pm 29.9 29.7 24.3 72 3.9 SE 33 41 18 22 1014.4 1014.3 0.0
29/11:30am 30.1 29.9 24.3 71 4.0 ESE 33 44 18 24 1014.8 1014.7 0.0
29/11:00am 29.4 27.7 23.8 72 3.9 SE 39 50 21 27 1015.1 1015.0 0.0
29/10:30am 28.3 26.6 23.7 76 3.2 SE 39 48 21 26 1015.3 1015.2 0.0
29/10:00am 27.5 25.3 22.9 76 3.1 SE 39 48 21 26 1015.4 1015.3 0.0
29/09:30am 28.6 27.1 23.5 74 3.5 SE 37 48 20 26 1015.4 1015.3 0.0
29/09:00am 27.9 27.1 23.3 76 3.1 SE 33 41 18 22 1015.3 1015.2 0.0
29/08:30am 27.2 25.4 23.0 78 2.9 SE 37 50 20 27 1015.2 1015.1 0.0
29/08:00am 27.6 26.0 23.2 77 3.0 SE 37 44 20 24 1015.1 1015.0 0.0
29/07:30am 27.0 23.8 22.4 76 3.1 SE 43 50 23 27 1014.6 1014.5 0.0
29/07:00am 26.8 23.4 22.4 77 3.0 SE 44 54 24 29 1014.2 1014.1 0.0
29/06:30am 26.6 23.9 22.7 79 2.6 SE 41 52 22 28 1013.9 1013.8 0.0
29/06:00am 26.2 23.5 22.7 81 2.4 SE 41 54 22 29 1013.8 1013.7 0.0
29/05:30am 26.1 23.5 22.8 82 2.2 SE 41 52 22 28 1013.5 1013.4 0.0
29/05:10am 25.8 23.6 22.9 84 2.0 SE 39 57 21 31 1013.6 1013.5 0.0
29/05:00am 26.7 24.5 22.8 79 2.6 SE 39 50 21 27 1013.5 1013.4 0.0
29/04:30am 26.7 24.6 23.0 80 2.5 SE 39 50 21 27 1013.5 1013.4 0.0
29/04:00am 26.6 23.5 22.7 79 2.6 SE 43 50 23 27 1013.5 1013.4 0.0
29/03:30am 26.2 25.0 22.7 81 2.4 SE 33 43 18 23 1013.5 1013.4 0.0
29/03:00am 26.6 24.3 22.7 79 2.6 SE 39 46 21 25 1013.8 1013.7 0.0
29/02:30am 26.7 24.3 22.5 78 2.8 SE 39 46 21 25 1014.0 1013.9 0.0
29/02:00am 26.7 23.8 22.3 77 3.0 SE 41 52 22 28 1014.1 1014.0 0.0
29/01:30am 26.9 24.1 22.5 77 3.0 SE 41 50 22 27 1014.3 1014.2 0.0
29/01:00am 26.8 24.2 22.2 76 3.1 SE 39 46 21 25 1014.4 1014.3 0.0
29/12:30am 27.0 23.8 22.4 76 3.1 SE 43 50 23 27 1014.5 1014.4 0.0
29/12:00am 26.7 23.7 22.1 76 3.1 SE 41 50 22 27 1014.5 1014.4 0.0
 
Date/Time
CST
Temp
°C
App
Temp
°C
Dew
Point
°C
Rel
Hum
%
Delta-T
°C
Wind Press
QNH
hPa
Press
MSL
hPa
Rain since
9am
mm
Dir  Spd
km/h
Gust
km/h
Spd
kts
Gust
kts
28/11:30pm 26.8 23.8 22.2 76 3.1 SE 41 52 22 28 1014.4 1014.3 0.0
28/11:00pm 26.7 23.7 22.1 76 3.1 SE 41 54 22 29 1014.4 1014.3 0.0
28/10:30pm 26.8 23.5 22.2 76 3.1 SE 43 52 23 28 1014.5 1014.4 0.0
28/10:00pm 26.9 23.6 22.3 76 3.1 SE 43 54 23 29 1014.7 1014.6 0.0
28/09:30pm 26.8 22.9 22.2 76 3.1 SE 46 56 25 30 1014.7 1014.6 0.0
28/09:00pm 26.9 23.8 22.7 78 2.8 SE 43 52 23 28 1014.5 1014.4 0.0
28/08:30pm 27.1 23.8 22.3 75 3.2 SE 43 57 23 31 1014.3 1014.2 0.0
28/08:00pm 27.2 24.1 22.6 76 3.1 SE 43 56 23 30 1014.1 1014.0 0.0
28/07:30pm 27.2 23.9 22.6 76 3.1 SE 44 56 24 30 1013.9 1013.8 0.0
28/07:00pm 27.1 23.9 22.5 76 3.1 SE 43 54 23 29 1013.6 1013.5 0.0
28/06:30pm 27.1 23.9 22.5 76 3.1 SE 43 54 23 29 1013.4 1013.3 0.0
28/06:00pm 27.0 23.7 22.2 75 3.2 SE 43 52 23 28 1012.9 1012.8 0.0
28/05:30pm 27.2 23.7 22.2 74 3.4 SE 44 56 24 30 1012.5 1012.4 0.0
28/05:00pm 27.6 23.6 22.1 72 3.7 SE 46 54 25 29 1012.3 1012.2 0.0
28/04:30pm 28.0 24.6 22.5 72 3.7 SE 44 56 24 30 1012.1 1012.0 0.0
28/04:00pm 28.4 24.6 22.4 70 4.1 SE 46 59 25 32 1011.9 1011.8 0.0
28/03:30pm 28.2 24.3 22.2 70 4.1 SE 46 61 25 33 1011.8 1011.7 0.0
28/03:00pm 28.8 25.1 22.5 68 4.3 SE 46 57 25 31 1011.7 1011.6 0.0
28/02:30pm 29.4 26.4 23.1 69 4.3 SE 44 56 24 30 1012.0 1011.9 0.0
28/02:00pm 29.7 26.3 23.2 68 4.5 SE 46 57 25 31 1012.3 1012.2 0.0
28/01:30pm 29.9 27.3 23.6 69 4.3 SE 43 52 23 28 1012.7 1012.6 0.0
28/01:00pm 30.0 27.5 23.7 69 4.4 SE 43 54 23 29 1013.0 1012.9 0.0
28/12:30pm 29.1 25.9 22.8 69 4.3 SE 44 56 24 30 1013.4 1013.3 0.0
28/12:00pm 29.3 27.0 23.3 70 4.1 SE 41 54 22 29 1013.7 1013.6 0.0
28/11:30am 29.9 27.2 23.6 69 4.3 SE 44 54 24 29 1014.0 1013.9 0.0
28/11:00am 29.7 27.1 23.6 69 4.2 SE 43 52 23 28 1014.4 1014.3 0.0
28/10:30am 29.5 27.9 23.9 72 3.9 SE 39 48 21 26 1014.7 1014.6 0.0
28/10:00am 28.9 26.8 23.1 71 4.0 SE 39 48 21 26 1014.7 1014.6 0.0
28/09:30am 28.8 26.9 23.5 73 3.6 SE 39 48 21 26 1014.7 1014.6 0.0
28/09:00am 28.6 27.1 23.5 74 3.5 ESE 37 46 20 25 1014.5 1014.4 0.0
28/08:30am 28.1 26.1 23.2 74 3.3 ESE 39 46 21 25 1014.2 1014.1 0.0
28/08:00am 27.6 26.7 23.2 77 3.0 ESE 33 41 18 22 1014.1 1014.0 0.0
28/07:30am 27.1 25.6 22.7 77 3.0 ESE 35 44 19 24 1013.7 1013.6 0.0
28/07:00am 27.1 25.3 22.9 78 2.9 SE 37 44 20 24 1013.5 1013.4 0.0
28/06:30am 26.8 25.6 22.6 78 2.8 SE 33 44 18 24 1013.3 1013.2 0.0
28/06:00am 26.9 25.9 22.7 78 2.8 SE 32 41 17 22 1013.2 1013.1 0.0
28/05:30am 26.6 25.4 22.2 77 3.0 SE 32 39 17 21 1013.1 1013.0 0.0
28/05:00am 26.8 25.7 22.4 77 3.0 SE 32 41 17 22 1013.2 1013.1 0.0

Other Formats:

Comma delimited format used in spreadsheet applications
http://www.bom.gov.au/fwo/IDD60801/IDD60801.94147.axf

JavaScript Object Notation format (JSON) in row-major order
http://www.bom.gov.au/fwo/IDD60801/IDD60801.94147.json